YBWP

Details ICAO YBWP (WEI)
Name Weipa
Region Australia
Timezone Australia/Brisbane (UTC+10.0)
Plans Departing 8
Arriving 13
Stats Elevation 63 ft / 19 m (AMSL)
Location -12.677403° 141.922386°
Runways 1
Magnetic Variation 5.100° E
Sunrise 2018-05-25 20:46:56 UTC / 2018-05-26 06:46:56 Local
Sunset 2018-05-26 08:14:33 UTC / 2018-05-26 18:14:33 Local
Advertisement - Login to hide

Runways

ID Width Length Bearing (true) Bearing (mag) Surface Threshold Offset Overrun Length
12 98 ft / 30 m 5,404 ft / 1,647 m 124.40° 119.30° Asphalt 0 ft / 0 m 0 ft / 0 m
30 98 ft / 30 m 5,404 ft / 1,647 m 304.40° 299.30° Asphalt 0 ft / 0 m 0 ft / 0 m

Map

Weather


0- 5 10 15 20 25 30 35+ Temperature / ° C

Clouds and Precipitation
Forecast for 2018-05-25 18:00 UTC. Updated 6 hours ago

Ground ~20,000 ft ~40,000 ft Winds

METAR

YBWP 252300Z AUTO 11013KT 9999 // NCD 26/19 Q1013

TAF

Not found

Frequencies

Unicom 126.70 MHz CTAF
Warning: Do not use this data for real-world aviation or navigation. No guarantee of current accuracy is given.